Time;durP1;ratioP1;P1;durP2;ratioP2;P2;SDS_P1;SDS_P2;PMS_P1;PMS_P2;Temp;Humidity;BMP_temperature;BMP_pressure;BME280_temperature;BME280_humidity;BME280_pressure;Samples;Min_cycle;Max_cycle;Signal;HPM_P1;HPM_P2
2022/03/07 00:01:13;;;;;;;48.17;30.35;;;4.10;99.90;;;;;;5021035;28;20211;-92
2022/03/07 00:03:39;;;;;;;50.90;31.33;;;4.10;99.90;;;;;;5012807;28;20187;-93
2022/03/07 00:06:05;;;;;;;51.73;30.03;;;4.10;99.90;;;;;;5012189;28;20203;-93
2022/03/07 00:08:32;;;;;;;55.03;32.75;;;4.10;99.90;;;;;;5011338;28;20388;-93
2022/03/07 00:10:58;;;;;;;53.53;31.17;;;4.00;99.90;;;;;;5064352;28;20223;-91
2022/03/07 00:13:24;;;;;;;56.35;31.05;;;4.00;99.90;;;;;;5013765;28;20180;-90
2022/03/07 00:15:51;;;;;;;57.00;30.92;;;4.00;99.90;;;;;;5018255;28;20259;-90
2022/03/07 00:18:17;;;;;;;68.60;36.80;;;3.90;99.90;;;;;;5010374;28;20322;-91
2022/03/07 00:20:44;;;;;;;60.30;32.22;;;3.90;99.90;;;;;;5010187;28;20348;-91
2022/03/07 00:23:15;;;;;;;57.72;32.67;;;3.90;99.90;;;;;;5010530;28;20324;-92
2022/03/07 00:25:41;;;;;;;59.60;31.98;;;3.90;99.90;;;;;;5012315;28;20267;-90
2022/03/07 00:28:07;;;;;;;56.67;32.42;;;3.80;99.90;;;;;;5024428;28;20168;-91
2022/03/07 00:30:34;;;;;;;53.72;31.85;;;3.80;99.90;;;;;;5064874;28;20690;-91
2022/03/07 00:33:00;;;;;;;50.72;28.75;;;3.80;99.90;;;;;;5014315;28;20583;-91
2022/03/07 00:35:26;;;;;;;53.67;32.63;;;3.80;99.90;;;;;;5013844;28;20203;-93
2022/03/07 00:37:52;;;;;;;50.72;30.50;;;3.80;99.90;;;;;;5017414;28;20188;-93
2022/03/07 00:40:19;;;;;;;54.58;32.47;;;3.70;99.90;;;;;;5022415;28;20233;-93
2022/03/07 00:42:45;;;;;;;53.55;33.22;;;3.70;99.90;;;;;;5013890;28;20176;-93
2022/03/07 00:45:11;;;;;;;55.03;32.95;;;3.70;99.90;;;;;;5012879;28;20239;-93
2022/03/07 00:47:37;;;;;;;46.45;30.38;;;3.70;99.90;;;;;;5013378;28;20643;-93
2022/03/07 00:50:05;;;;;;;60.42;31.67;;;3.60;99.90;;;;;;5015756;28;20218;-93
2022/03/07 00:52:31;;;;;;;54.22;28.85;;;3.60;99.90;;;;;;5021365;28;20207;-92
2022/03/07 00:54:57;;;;;;;52.67;29.35;;;3.60;99.90;;;;;;5014283;28;20264;-93
2022/03/07 00:57:23;;;;;;;55.67;32.15;;;3.60;99.90;;;;;;5012958;28;20256;-93
2022/03/07 00:59:49;;;;;;;50.13;28.17;;;3.60;99.90;;;;;;5012742;28;20290;-93
2022/03/07 01:02:15;;;;;;;50.13;28.50;;;3.60;99.90;;;;;;5022051;28;20199;-93
2022/03/07 01:04:42;;;;;;;47.28;28.25;;;3.60;99.90;;;;;;5019254;28;20522;-93
2022/03/07 01:07:09;;;;;;;48.25;28.55;;;3.60;99.90;;;;;;5014074;28;20180;-91
2022/03/07 01:09:35;;;;;;;50.78;27.55;;;3.60;99.90;;;;;;5012404;28;20206;-93
2022/03/07 01:12:02;;;;;;;53.13;29.45;;;3.60;99.90;;;;;;5082228;28;20699;-93
2022/03/07 01:14:28;;;;;;;46.28;27.08;;;3.60;99.90;;;;;;5024928;28;20211;-93
2022/03/07 01:16:54;;;;;;;51.08;29.75;;;3.60;99.90;;;;;;5013388;28;20183;-92
2022/03/07 01:19:20;;;;;;;47.22;28.50;;;3.60;99.90;;;;;;5071357;28;20183;-93
2022/03/07 01:21:47;;;;;;;43.30;27.60;;;3.60;99.90;;;;;;5014376;28;20187;-92
2022/03/07 01:24:13;;;;;;;51.85;28.65;;;3.60;99.90;;;;;;5065139;28;20192;-94
2022/03/07 01:26:39;;;;;;;50.08;28.95;;;3.60;99.90;;;;;;5021327;28;20299;-93
2022/03/07 01:29:05;;;;;;;52.17;29.77;;;3.60;99.90;;;;;;5013140;28;20790;-93
2022/03/07 01:31:32;;;;;;;43.75;27.73;;;3.60;99.90;;;;;;5014543;28;20468;-93
2022/03/07 01:33:58;;;;;;;46.70;26.92;;;3.60;99.90;;;;;;5018440;28;20179;-92
2022/03/07 01:36:24;;;;;;;45.67;26.25;;;3.60;99.90;;;;;;5012482;28;20671;-93
2022/03/07 01:38:50;;;;;;;45.17;27.30;;;3.50;99.90;;;;;;5087158;28;20172;-94
2022/03/07 01:41:16;;;;;;;40.53;23.65;;;3.50;99.90;;;;;;5014344;28;20242;-93
2022/03/07 01:43:43;;;;;;;42.80;26.83;;;3.50;99.90;;;;;;5012084;28;20225;-93
2022/03/07 01:46:09;;;;;;;38.90;24.33;;;3.50;99.90;;;;;;5013714;28;20226;-93
2022/03/07 01:48:38;;;;;;;38.08;23.10;;;3.50;99.90;;;;;;5016796;28;20186;-94
2022/03/07 01:51:07;;;;;;;37.97;23.40;;;3.40;99.90;;;;;;5018116;28;20238;-94
2022/03/07 01:53:33;;;;;;;33.20;21.27;;;3.40;99.90;;;;;;5012418;28;20207;-94
2022/03/07 01:55:59;;;;;;;34.60;22.02;;;3.40;99.90;;;;;;5011881;28;20298;-93
2022/03/07 01:58:25;;;;;;;30.65;20.40;;;3.30;99.90;;;;;;5016411;28;20234;-93
2022/03/07 02:00:53;;;;;;;34.85;21.10;;;3.30;99.90;;;;;;5084470;28;20214;-94
2022/03/07 02:03:19;;;;;;;36.83;20.75;;;3.30;99.90;;;;;;5018729;28;20183;-94
2022/03/07 02:05:49;;;;;;;38.67;22.70;;;3.30;99.90;;;;;;5011645;28;20679;-94
2022/03/07 02:08:15;;;;;;;39.70;23.38;;;3.30;99.90;;;;;;5081037;28;20508;-93
2022/03/07 02:10:42;;;;;;;36.83;21.73;;;3.30;99.90;;;;;;5012750;28;20215;-95
2022/03/07 02:13:12;;;;;;;37.78;23.00;;;3.30;99.90;;;;;;5013105;28;20191;-93
2022/03/07 02:15:38;;;;;;;33.03;20.88;;;3.30;99.90;;;;;;5021286;28;20231;-94
2022/03/07 02:18:05;;;;;;;35.88;22.58;;;3.30;99.90;;;;;;5011932;28;20232;-93
2022/03/07 02:20:31;;;;;;;35.50;21.30;;;3.30;99.90;;;;;;5011798;28;20611;-94
2022/03/07 02:22:58;;;;;;;35.53;20.90;;;3.20;99.90;;;;;;5011645;28;20183;-94
2022/03/07 02:25:25;;;;;;;30.52;19.27;;;3.20;99.90;;;;;;5084828;28;20306;-94
2022/03/07 02:27:51;;;;;;;33.33;21.42;;;3.20;99.90;;;;;;5026238;28;20179;-93
2022/03/07 02:30:18;;;;;;;36.08;20.50;;;3.10;99.90;;;;;;5080727;28;20199;-94
2022/03/07 02:32:44;;;;;;;32.80;19.67;;;3.10;99.90;;;;;;5011350;28;20318;-93
2022/03/07 02:35:14;;;;;;;29.13;17.90;;;3.10;99.90;;;;;;5011174;28;20211;-94
2022/03/07 02:37:41;;;;;;;30.85;19.50;;;3.00;99.90;;;;;;5011131;28;20262;-93
2022/03/07 02:40:08;;;;;;;32.78;21.10;;;3.00;99.90;;;;;;5015920;28;20306;-94
2022/03/07 02:42:34;;;;;;;38.03;20.48;;;2.90;99.90;;;;;;5019905;28;20201;-92
2022/03/07 02:45:00;;;;;;;47.97;24.90;;;2.90;99.90;;;;;;5010803;28;20238;-93
2022/03/07 02:47:27;;;;;;;52.20;27.95;;;2.90;99.90;;;;;;5011262;28;20175;-93
2022/03/07 02:49:52;;;;;;;59.88;32.00;;;2.90;99.90;;;;;;5080022;28;20214;-94
2022/03/07 02:52:20;;;;;;;53.73;30.33;;;2.80;99.90;;;;;;5012121;28;20301;-94
2022/03/07 02:54:46;;;;;;;40.08;26.63;;;2.80;99.90;;;;;;5024671;28;20256;-93
2022/03/07 02:57:12;;;;;;;38.15;22.00;;;2.80;99.90;;;;;;5062786;28;20179;-93
2022/03/07 02:59:38;;;;;;;30.42;17.92;;;2.80;99.90;;;;;;5079456;28;20203;-93
2022/03/07 03:02:04;;;;;;;29.33;16.75;;;2.80;99.90;;;;;;5064648;28;20190;-92
2022/03/07 03:04:30;;;;;;;28.92;17.90;;;2.70;99.90;;;;;;5011408;28;20616;-94
2022/03/07 03:06:56;;;;;;;31.23;18.30;;;2.70;99.90;;;;;;5019124;28;20179;-94
2022/03/07 03:09:22;;;;;;;35.83;19.17;;;2.70;99.90;;;;;;5083615;28;20281;-94
2022/03/07 03:11:48;;;;;;;32.77;17.87;;;2.70;99.90;;;;;;5080046;28;20234;-94
2022/03/07 03:14:14;;;;;;;30.07;16.97;;;2.70;99.90;;;;;;5012755;28;20400;-93
2022/03/07 03:16:41;;;;;;;26.45;16.25;;;2.70;99.90;;;;;;5011268;28;20922;-94
2022/03/07 03:19:07;;;;;;;29.48;18.02;;;2.60;99.90;;;;;;5091457;28;20247;-94
2022/03/07 03:21:33;;;;;;;33.47;20.08;;;2.60;99.90;;;;;;5010773;28;20551;-94
2022/03/07 03:23:59;;;;;;;33.08;20.92;;;2.50;99.90;;;;;;5013258;28;20179;-93
2022/03/07 03:26:25;;;;;;;31.57;18.60;;;2.50;99.90;;;;;;5010906;28;20207;-94
2022/03/07 03:28:54;;;;;;;26.23;17.40;;;2.50;99.90;;;;;;5012487;28;20213;-93
2022/03/07 03:31:20;;;;;;;30.13;17.90;;;2.50;99.90;;;;;;5067165;28;20222;-94
2022/03/07 03:33:46;;;;;;;31.75;17.65;;;2.50;99.90;;;;;;5014987;28;20282;-93
2022/03/07 03:36:13;;;;;;;28.15;16.08;;;2.50;99.90;;;;;;5080053;28;20203;-93
2022/03/07 03:38:39;;;;;;;32.95;18.58;;;2.50;99.90;;;;;;5015647;28;20207;-93
2022/03/07 03:41:05;;;;;;;28.30;16.67;;;2.40;99.90;;;;;;5011587;28;20203;-94
2022/03/07 03:43:31;;;;;;;29.55;18.05;;;2.40;99.90;;;;;;5010743;28;20547;-92
2022/03/07 03:45:58;;;;;;;30.35;17.98;;;2.30;99.90;;;;;;5085603;28;20247;-93
2022/03/07 03:48:24;;;;;;;30.55;19.02;;;2.30;99.90;;;;;;5093270;28;20233;-93
2022/03/07 03:50:50;;;;;;;27.40;17.63;;;2.20;99.90;;;;;;5093486;28;20215;-94
2022/03/07 03:53:16;;;;;;;28.92;16.38;;;2.20;99.90;;;;;;5093632;28;20196;-94
2022/03/07 03:55:42;;;;;;;29.67;17.55;;;2.20;99.90;;;;;;5099154;28;20207;-94
2022/03/07 03:58:08;;;;;;;26.00;15.27;;;2.10;99.90;;;;;;5098587;28;20271;-92
2022/03/07 04:00:34;;;;;;;26.37;15.50;;;2.10;99.90;;;;;;5092634;28;20434;-94
2022/03/07 04:03:00;;;;;;;25.93;16.20;;;2.10;99.90;;;;;;5092577;28;20387;-93
2022/03/07 04:05:26;;;;;;;33.47;17.67;;;2.10;99.90;;;;;;5097125;28;20204;-94
2022/03/07 04:07:52;;;;;;;24.70;14.13;;;2.10;99.90;;;;;;5091915;28;20177;-92
2022/03/07 04:10:18;;;;;;;27.17;16.67;;;2.10;99.90;;;;;;5106049;28;20302;-93
2022/03/07 04:12:44;;;;;;;24.73;16.07;;;2.10;99.90;;;;;;5096905;28;20812;-93
2022/03/07 04:15:11;;;;;;;30.65;17.80;;;2.10;99.90;;;;;;5096949;28;20661;-93
2022/03/07 04:17:38;;;;;;;29.48;17.67;;;2.10;99.90;;;;;;5097589;28;20191;-92
2022/03/07 04:20:05;;;;;;;26.27;17.17;;;2.10;99.90;;;;;;5107314;28;20211;-93
2022/03/07 04:22:31;;;;;;;27.80;16.92;;;2.10;99.90;;;;;;5097465;28;20190;-93
2022/03/07 04:24:57;;;;;;;28.40;17.03;;;2.10;99.90;;;;;;5100255;28;20628;-93
2022/03/07 04:27:24;;;;;;;25.88;15.65;;;2.10;99.90;;;;;;5097192;28;21009;-89
2022/03/07 04:29:51;;;;;;;22.13;14.43;;;2.10;99.90;;;;;;5097434;28;20223;-89
2022/03/07 04:32:17;;;;;;;24.63;14.77;;;2.10;99.90;;;;;;5107622;28;20207;-89
2022/03/07 04:34:43;;;;;;;25.58;14.38;;;2.10;99.90;;;;;;5097329;28;20203;-89
2022/03/07 04:37:09;;;;;;;23.88;13.80;;;2.20;99.90;;;;;;5099030;28;20660;-90
2022/03/07 04:39:35;;;;;;;22.53;14.70;;;2.30;99.90;;;;;;5096976;28;20204;-90
2022/03/07 04:42:02;;;;;;;26.38;15.35;;;2.30;99.90;;;;;;5098221;28;20405;-90
2022/03/07 04:44:27;;;;;;;25.40;14.63;;;2.30;99.90;;;;;;5105474;28;20204;-90
2022/03/07 04:46:53;;;;;;;22.03;13.83;;;2.30;99.90;;;;;;5096459;28;20570;-90
2022/03/07 04:49:19;;;;;;;24.70;14.07;;;2.30;99.90;;;;;;5096307;28;20392;-90
2022/03/07 04:51:46;;;;;;;29.13;14.70;;;2.30;99.90;;;;;;5097763;28;20435;-90
2022/03/07 04:54:16;;;;;;;21.63;14.70;;;2.40;99.90;;;;;;5098289;28;20686;-89
2022/03/07 04:56:47;;;;;;;26.48;14.57;;;2.40;99.90;;;;;;5105032;28;20261;-89
2022/03/07 04:59:14;;;;;;;29.27;15.98;;;2.40;99.90;;;;;;5096248;28;20641;-89
2022/03/07 05:01:40;;;;;;;32.03;17.95;;;2.40;99.90;;;;;;5096071;28;20188;-90
2022/03/07 05:04:07;;;;;;;33.53;19.92;;;2.40;99.90;;;;;;5096013;28;20180;-90
2022/03/07 05:06:34;;;;;;;64.50;29.50;;;2.40;99.90;;;;;;5103866;28;20251;-90
2022/03/07 05:08:59;;;;;;;82.07;42.33;;;2.40;99.90;;;;;;5098475;28;20507;-90
2022/03/07 05:11:25;;;;;;;79.93;38.33;;;2.40;99.90;;;;;;5095749;28;20212;-90
2022/03/07 05:13:54;;;;;;;38.22;22.00;;;2.40;99.90;;;;;;5096419;28;20415;-90
2022/03/07 05:16:20;;;;;;;27.60;16.85;;;2.50;99.90;;;;;;5097156;28;20204;-90
2022/03/07 05:18:46;;;;;;;25.20;15.60;;;2.40;99.90;;;;;;5100474;28;20208;-89
2022/03/07 05:21:12;;;;;;;27.13;14.50;;;2.50;99.90;;;;;;5095952;28;20295;-90
2022/03/07 05:23:39;;;;;;;30.60;15.30;;;2.50;99.90;;;;;;5099186;28;20406;-89
2022/03/07 05:26:04;;;;;;;24.40;14.18;;;2.50;99.90;;;;;;5096076;28;20200;-90
2022/03/07 05:28:31;;;;;;;28.50;15.52;;;2.60;99.90;;;;;;5102362;28;20644;-90
2022/03/07 05:30:56;;;;;;;31.27;16.55;;;2.60;99.90;;;;;;5079322;28;20682;-88
2022/03/07 05:33:22;;;;;;;31.93;15.10;;;2.80;99.90;;;;;;5089730;28;20206;-89
2022/03/07 05:35:48;;;;;;;30.53;16.20;;;2.90;99.90;;;;;;5095561;28;20416;-89
2022/03/07 05:38:14;;;;;;;30.33;16.43;;;3.10;99.90;;;;;;5101422;28;20184;-89
2022/03/07 05:40:40;;;;;;;28.80;15.20;;;3.20;99.90;;;;;;5100929;28;20262;-89
2022/03/07 05:43:06;;;;;;;25.65;13.55;;;3.40;99.90;;;;;;5094977;28;20271;-88
2022/03/07 05:45:32;;;;;;;28.60;16.37;;;3.60;99.90;;;;;;5093920;28;20731;-90
2022/03/07 05:47:58;;;;;;;29.03;17.13;;;3.60;99.90;;;;;;5095107;28;20490;-90
2022/03/07 05:50:24;;;;;;;44.45;21.98;;;3.50;99.90;;;;;;5105435;28;20989;-90
2022/03/07 05:52:50;;;;;;;34.17;17.93;;;3.50;99.90;;;;;;5098557;28;20231;-90
2022/03/07 05:55:16;;;;;;;29.85;16.95;;;3.50;99.90;;;;;;5094954;28;20466;-90
2022/03/07 05:57:43;;;;;;;32.25;17.77;;;3.50;99.90;;;;;;5096080;28;20172;-91
2022/03/07 06:00:10;;;;;;;49.33;26.67;;;3.50;99.90;;;;;;5095264;28;20196;-90
2022/03/07 06:02:37;;;;;;;28.10;17.42;;;3.50;99.90;;;;;;5107422;28;20177;-91
2022/03/07 06:05:03;;;;;;;22.70;14.60;;;3.60;99.90;;;;;;5098409;28;20239;-93
2022/03/07 06:07:29;;;;;;;29.83;14.13;;;3.60;99.90;;;;;;5097471;28;20172;-94
2022/03/07 06:09:56;;;;;;;18.60;11.82;;;3.60;99.90;;;;;;5094927;28;20200;-94
2022/03/07 06:12:22;;;;;;;21.95;12.68;;;3.70;99.90;;;;;;5090776;28;20273;-92
2022/03/07 06:14:48;;;;;;;19.67;13.15;;;3.70;99.90;;;;;;5062610;28;20219;-93
2022/03/07 06:17:14;;;;;;;20.93;13.97;;;3.70;99.90;;;;;;5094664;28;20212;-91
2022/03/07 06:19:40;;;;;;;24.42;13.63;;;3.70;99.90;;;;;;5095761;28;20452;-93
2022/03/07 06:22:06;;;;;;;22.50;14.30;;;3.60;99.90;;;;;;5092936;28;20184;-90
2022/03/07 06:24:32;;;;;;;22.67;13.80;;;3.60;99.90;;;;;;5093438;28;20200;-94
2022/03/07 06:26:58;;;;;;;22.73;13.03;;;3.50;99.90;;;;;;5093772;28;20405;-94
2022/03/07 06:29:24;;;;;;;17.57;12.20;;;3.40;99.90;;;;;;5098413;28;20423;-91
2022/03/07 06:31:50;;;;;;;23.52;13.90;;;3.40;99.90;;;;;;5099576;28;20491;-91
2022/03/07 06:34:16;;;;;;;18.65;12.13;;;3.30;99.90;;;;;;5095610;28;20223;-94
2022/03/07 06:36:42;;;;;;;18.60;12.90;;;3.30;99.90;;;;;;5081213;28;20189;-92
2022/03/07 06:39:08;;;;;;;16.17;10.80;;;3.30;99.90;;;;;;5073868;28;20184;-94
2022/03/07 06:41:34;;;;;;;18.33;11.48;;;3.40;99.90;;;;;;5079466;28;20391;-92
2022/03/07 06:44:00;;;;;;;16.50;9.47;;;3.40;99.90;;;;;;5099548;28;20207;-93
2022/03/07 06:46:28;;;;;;;14.25;9.40;;;3.40;99.90;;;;;;5022300;28;20246;-93
2022/03/07 06:48:54;;;;;;;17.38;10.98;;;3.50;99.90;;;;;;4981055;28;20177;-92
2022/03/07 06:51:23;;;;;;;19.33;11.50;;;3.50;99.90;;;;;;4960177;28;20867;-94
2022/03/07 06:53:50;;;;;;;13.88;7.03;;;3.50;99.90;;;;;;4995462;28;20613;-91
2022/03/07 06:56:19;;;;;;;14.27;8.55;;;3.50;99.90;;;;;;4987182;28;20212;-94
2022/03/07 06:58:46;;;;;;;17.73;11.75;;;3.60;99.90;;;;;;4994311;28;20203;-93
2022/03/07 07:01:12;;;;;;;15.18;10.25;;;3.60;99.90;;;;;;4990904;28;20211;-94
2022/03/07 07:03:38;;;;;;;12.95;9.13;;;3.70;99.90;;;;;;4991750;28;20184;-94
2022/03/07 07:06:04;;;;;;;12.97;8.37;;;3.80;99.90;;;;;;5000115;28;20316;-94
2022/03/07 07:08:34;;;;;;;15.52;10.68;;;3.90;99.90;;;;;;4992595;28;20413;-94
2022/03/07 07:11:00;;;;;;;16.52;10.23;;;3.90;99.90;;;;;;5015935;28;20227;-94
2022/03/07 07:13:26;;;;;;;17.13;10.98;;;4.00;99.90;;;;;;4985741;28;20187;-93
2022/03/07 07:15:55;;;;;;;13.75;8.18;;;4.00;99.90;;;;;;4987705;28;20237;-95
2022/03/07 07:18:22;;;;;;;15.05;10.50;;;4.10;99.90;;;;;;4990275;28;20180;-94
2022/03/07 07:20:50;;;;;;;14.32;8.55;;;4.20;99.90;;;;;;4991401;28;20660;-95
2022/03/07 07:23:17;;;;;;;20.45;11.45;;;4.20;99.90;;;;;;5003516;28;20175;-94
2022/03/07 07:25:44;;;;;;;13.73;10.13;;;4.30;99.90;;;;;;4989236;28;20238;-93
2022/03/07 07:28:11;;;;;;;18.02;10.70;;;4.40;99.70;;;;;;4990970;28;20267;-93
2022/03/07 07:30:37;;;;;;;20.08;10.93;;;4.50;99.20;;;;;;4988812;28;20215;-88
2022/03/07 07:33:04;;;;;;;16.95;9.90;;;4.50;99.40;;;;;;4991000;28;20190;-90
2022/03/07 07:35:34;;;;;;;16.15;11.48;;;4.50;98.80;;;;;;4994294;28;20219;-90
2022/03/07 07:38:00;;;;;;;14.55;8.88;;;4.60;98.80;;;;;;4995710;28;20196;-94
2022/03/07 07:40:27;;;;;;;14.05;9.45;;;4.70;98.50;;;;;;4982228;28;20272;-89
2022/03/07 07:42:57;;;;;;;19.92;10.38;;;4.80;98.50;;;;;;4993066;28;20213;-89
2022/03/07 07:45:29;;;;;;;12.05;6.32;;;4.90;98.00;;;;;;5017872;28;20257;-93
2022/03/07 07:47:55;;;;;;;13.27;9.75;;;5.00;97.80;;;;;;5087227;28;20183;-93
2022/03/07 07:50:21;;;;;;;17.58;11.02;;;5.10;97.50;;;;;;5092507;28;20216;-94
2022/03/07 07:52:47;;;;;;;18.17;11.10;;;5.10;97.30;;;;;;5088030;28;20205;-91
2022/03/07 07:55:14;;;;;;;18.55;10.85;;;5.20;97.50;;;;;;5076787;28;20524;-90
2022/03/07 07:57:41;;;;;;;16.67;10.48;;;5.30;96.90;;;;;;5086050;28;20184;-90
2022/03/07 08:00:10;;;;;;;18.67;12.20;;;5.40;96.90;;;;;;5064246;28;20201;-90
2022/03/07 08:02:38;;;;;;;21.02;11.65;;;5.40;96.80;;;;;;5082577;28;20189;-90
2022/03/07 08:05:06;;;;;;;16.85;11.88;;;5.50;96.90;;;;;;5077903;28;20219;-95
2022/03/07 08:07:41;;;;;;;18.75;10.73;;;5.70;96.70;;;;;;5088597;28;20264;-91
2022/03/07 08:10:10;;;;;;;18.85;11.40;;;5.90;96.30;;;;;;5071339;28;20207;-96
2022/03/07 08:13:09;;;;;;;;;;;;;;;;;;;;;
2022/03/07 08:15:36;;;;;;;16.40;11.25;;;6.30;95.70;;;;;;5085203;28;20298;-90
2022/03/07 08:18:03;;;;;;;15.57;10.80;;;6.60;94.80;;;;;;5100621;28;20180;-90
2022/03/07 08:20:29;;;;;;;14.00;11.23;;;7.00;94.80;;;;;;5073730;28;20205;-90
2022/03/07 08:22:56;;;;;;;18.43;11.13;;;7.30;94.20;;;;;;5096261;28;20191;-90
2022/03/07 08:25:22;;;;;;;16.67;11.27;;;7.90;93.60;;;;;;5086348;28;20648;-90
2022/03/07 08:27:49;;;;;;;18.80;11.40;;;8.40;92.60;;;;;;5087756;28;20218;-91
2022/03/07 08:30:19;;;;;;;17.00;11.40;;;8.90;91.70;;;;;;5081108;28;20188;-91
2022/03/07 08:32:45;;;;;;;16.67;12.10;;;9.30;90.90;;;;;;5110588;28;20219;-92
2022/03/07 08:35:13;;;;;;;15.52;11.30;;;9.70;89.80;;;;;;5086897;28;20231;-90
2022/03/07 08:37:40;;;;;;;13.65;10.25;;;10.00;88.40;;;;;;5084024;28;20262;-90
2022/03/07 08:40:08;;;;;;;19.65;10.73;;;10.10;85.80;;;;;;5095997;28;20212;-95
2022/03/07 08:42:34;;;;;;;13.40;10.50;;;10.10;85.40;;;;;;5095350;28;20191;-96
2022/03/07 08:45:00;;;;;;;15.30;10.75;;;10.00;84.40;;;;;;5099909;28;20201;-96
2022/03/07 08:47:27;;;;;;;14.70;11.57;;;10.00;84.50;;;;;;5075404;28;20241;-96
2022/03/07 08:49:53;;;;;;;16.38;12.75;;;9.90;84.20;;;;;;5076568;28;20701;-94
2022/03/07 08:52:19;;;;;;;16.50;11.50;;;10.00;84.30;;;;;;5021155;28;20227;-96
2022/03/07 08:54:48;;;;;;;15.43;12.05;;;10.10;83.30;;;;;;5072995;28;20195;-92
2022/03/07 08:57:14;;;;;;;22.95;12.43;;;10.20;83.60;;;;;;5092929;28;20183;-96
2022/03/07 08:59:40;;;;;;;13.70;11.30;;;10.40;83.30;;;;;;5083282;28;20195;-91
2022/03/07 09:02:09;;;;;;;14.23;10.13;;;10.70;82.80;;;;;;5059127;28;20450;-92
2022/03/07 09:04:36;;;;;;;15.90;11.65;;;10.90;81.30;;;;;;5076417;28;20227;-91
2022/03/07 09:07:03;;;;;;;15.45;10.23;;;11.00;81.00;;;;;;5082169;28;20228;-92
2022/03/07 09:09:29;;;;;;;15.48;10.85;;;11.30;81.70;;;;;;5112685;27;20196;-96
2022/03/07 09:11:55;;;;;;;16.33;10.77;;;11.50;79.40;;;;;;5107757;28;20226;-95
2022/03/07 09:14:21;;;;;;;14.40;11.15;;;11.70;79.30;;;;;;5098483;28;20421;-95
2022/03/07 09:16:48;;;;;;;16.08;11.88;;;11.90;79.10;;;;;;5090187;28;20199;-95
2022/03/07 09:19:14;;;;;;;17.75;11.70;;;12.10;79.00;;;;;;5092041;28;20175;-96
2022/03/07 09:21:41;;;;;;;15.13;10.95;;;12.30;76.70;;;;;;5075794;28;20258;-92
2022/03/07 09:24:07;;;;;;;16.02;12.30;;;12.40;76.40;;;;;;5077476;28;20602;-90
2022/03/07 09:26:34;;;;;;;13.80;11.15;;;12.30;74.90;;;;;;5071949;28;20196;-91
2022/03/07 09:29:00;;;;;;;12.93;10.40;;;12.20;75.10;;;;;;5043622;28;20189;-91
2022/03/07 09:31:27;;;;;;;13.60;10.63;;;12.20;73.90;;;;;;5061899;28;20234;-96
2022/03/07 09:33:53;;;;;;;13.35;11.00;;;11.90;73.40;;;;;;5089424;28;20232;-96
2022/03/07 09:36:19;;;;;;;13.98;10.98;;;11.70;74.20;;;;;;5017083;28;20474;-94
2022/03/07 09:38:45;;;;;;;15.63;11.48;;;11.50;74.60;;;;;;5085681;28;20187;-92
2022/03/07 09:41:14;;;;;;;13.60;10.75;;;11.40;74.20;;;;;;5014114;28;20207;-91
2022/03/07 09:43:41;;;;;;;15.57;11.05;;;11.30;74.70;;;;;;5075362;28;20191;-92
2022/03/07 09:46:08;;;;;;;14.80;11.18;;;11.10;74.70;;;;;;5069044;28;20223;-90
2022/03/07 09:48:34;;;;;;;15.10;10.75;;;10.90;74.80;;;;;;5050490;28;20635;-91
2022/03/07 09:51:00;;;;;;;14.10;11.27;;;10.70;74.30;;;;;;5084694;28;20227;-91
2022/03/07 09:53:27;;;;;;;16.95;11.40;;;10.50;75.40;;;;;;5075148;28;20270;-92
2022/03/07 09:55:53;;;;;;;14.18;11.00;;;10.30;75.50;;;;;;5078399;28;20750;-92
2022/03/07 09:58:19;;;;;;;14.87;11.47;;;10.30;75.90;;;;;;5064345;28;20235;-91
2022/03/07 10:00:45;;;;;;;15.68;10.25;;;10.30;75.60;;;;;;5079359;28;20427;-92
2022/03/07 10:03:14;;;;;;;16.40;11.57;;;10.30;76.10;;;;;;5075268;28;20268;-92
2022/03/07 10:05:48;;;;;;;15.23;11.63;;;10.40;75.60;;;;;;5077125;28;20202;-91
2022/03/07 10:08:28;;;;;;;15.40;12.13;;;10.30;76.10;;;;;;5092111;28;20603;-92
2022/03/07 10:10:55;;;;;;;13.30;11.20;;;10.30;75.80;;;;;;5073899;28;20298;-91
2022/03/07 10:13:23;;;;;;;15.45;12.65;;;10.20;76.00;;;;;;5014430;28;20195;-92
2022/03/07 10:16:00;;;;;;;15.30;12.02;;;10.10;75.60;;;;;;5080341;28;20293;-92
2022/03/07 10:18:28;;;;;;;14.93;11.80;;;10.00;75.80;;;;;;5070478;28;20183;-91
2022/03/07 10:20:57;;;;;;;14.32;12.15;;;9.90;76.20;;;;;;5084317;28;20248;-92
2022/03/07 10:23:27;;;;;;;14.60;11.30;;;9.70;76.30;;;;;;5078153;28;20191;-93
2022/03/07 10:26:12;;;;;;;15.32;11.82;;;9.70;77.00;;;;;;5081088;28;20213;-95
2022/03/07 10:28:39;;;;;;;16.95;11.38;;;9.60;77.60;;;;;;5068952;28;20183;-96
2022/03/07 10:31:18;;;;;;;16.38;12.75;;;9.60;77.40;;;;;;5073904;28;20423;-92
2022/03/07 10:33:48;;;;;;;13.50;11.07;;;9.40;77.40;;;;;;5063709;28;20202;-92
2022/03/07 10:36:15;;;;;;;16.05;11.93;;;9.40;77.30;;;;;;5083534;28;20688;-89
2022/03/07 10:38:43;;;;;;;17.50;12.27;;;9.20;77.10;;;;;;5062436;28;20179;-92
2022/03/07 10:41:09;;;;;;;14.20;11.27;;;9.00;77.00;;;;;;5075424;28;20227;-91
2022/03/07 10:43:46;;;;;;;15.88;11.20;;;8.90;77.60;;;;;;5072586;28;20187;-94
2022/03/07 10:46:23;;;;;;;13.23;10.43;;;8.80;77.80;;;;;;5014909;28;20218;-93
2022/03/07 10:48:50;;;;;;;12.73;10.07;;;8.70;78.00;;;;;;5089959;28;20188;-89
2022/03/07 10:51:20;;;;;;;14.95;11.10;;;8.50;77.70;;;;;;5075613;28;20311;-92
2022/03/07 10:53:47;;;;;;;16.67;11.32;;;8.40;78.20;;;;;;4993655;28;20400;-90
2022/03/07 10:56:17;;;;;;;14.95;11.15;;;8.40;78.70;;;;;;5089266;28;20214;-91
2022/03/07 10:58:48;;;;;;;15.88;12.25;;;8.30;78.60;;;;;;5020048;28;20636;-91
2022/03/07 11:01:26;;;;;;;14.95;10.90;;;8.30;78.40;;;;;;4997104;28;20218;-91
2022/03/07 11:03:55;;;;;;;15.02;10.98;;;8.20;79.00;;;;;;5017640;28;20187;-91
2022/03/07 11:06:22;;;;;;;16.10;10.60;;;8.20;78.70;;;;;;5101004;28;20690;-91
2022/03/07 11:08:48;;;;;;;16.05;10.30;;;8.20;78.70;;;;;;5076264;28;20175;-91
2022/03/07 11:11:15;;;;;;;14.93;11.93;;;8.10;78.60;;;;;;5085022;28;20288;-90
2022/03/07 11:13:42;;;;;;;13.60;10.75;;;8.10;79.20;;;;;;5066745;28;20269;-89
2022/03/07 11:16:09;;;;;;;16.88;11.95;;;8.10;79.80;;;;;;4994565;28;20203;-91
2022/03/07 11:18:35;;;;;;;15.65;10.75;;;8.10;80.00;;;;;;5082446;28;20203;-91
2022/03/07 11:21:04;;;;;;;14.27;11.20;;;8.10;79.70;;;;;;5068701;28;20203;-90
2022/03/07 11:23:31;;;;;;;14.38;10.23;;;8.10;79.30;;;;;;5080361;28;20184;-92
2022/03/07 11:25:58;;;;;;;17.98;11.77;;;8.10;79.60;;;;;;5101390;28;20230;-91
2022/03/07 11:28:30;;;;;;;21.65;12.82;;;8.10;80.20;;;;;;5080405;28;20194;-91
2022/03/07 11:30:56;;;;;;;21.42;14.23;;;8.10;79.30;;;;;;5003010;28;20703;-90
2022/03/07 11:33:27;;;;;;;15.00;11.30;;;8.10;79.60;;;;;;5018116;28;20209;-90
2022/03/07 11:35:54;;;;;;;13.75;10.50;;;8.10;80.80;;;;;;4995267;28;20294;-90
2022/03/07 11:38:28;;;;;;;17.63;12.05;;;8.20;80.50;;;;;;5075358;28;20778;-90
2022/03/07 11:41:13;;;;;;;15.35;11.20;;;8.20;80.10;;;;;;5090130;28;20210;-95
2022/03/07 11:43:56;;;;;;;14.63;11.02;;;8.40;79.90;;;;;;5072580;28;20259;-96
2022/03/07 11:46:27;;;;;;;14.13;12.13;;;8.50;79.80;;;;;;4997984;28;20235;-95
2022/03/07 11:48:54;;;;;;;18.75;12.88;;;8.60;79.70;;;;;;5079642;28;20180;-96
2022/03/07 11:51:29;;;;;;;16.52;10.80;;;8.70;80.10;;;;;;5001461;28;20283;-92
2022/03/07 11:53:56;;;;;;;15.15;11.88;;;8.80;79.30;;;;;;5072168;28;20214;-91
2022/03/07 11:56:30;;;;;;;14.50;11.07;;;8.90;78.50;;;;;;4994419;28;20207;-92
2022/03/07 11:58:58;;;;;;;13.85;9.88;;;8.90;79.10;;;;;;5083397;28;20463;-91
2022/03/07 12:01:26;;;;;;;14.07;10.50;;;8.90;78.80;;;;;;5071380;28;20241;-91
2022/03/07 12:03:52;;;;;;;17.38;11.88;;;9.00;78.50;;;;;;5064875;28;20184;-91
2022/03/07 12:06:22;;;;;;;14.05;11.23;;;9.20;79.20;;;;;;5073660;28;20219;-91
2022/03/07 12:09:00;;;;;;;14.15;11.40;;;9.30;78.80;;;;;;5002375;28;20983;-91
2022/03/07 12:11:34;;;;;;;16.30;11.55;;;9.40;79.50;;;;;;4990131;28;20227;-91
2022/03/07 12:14:05;;;;;;;20.85;12.88;;;9.50;77.40;;;;;;5067258;28;20184;-91
2022/03/07 12:16:39;;;;;;;14.65;11.35;;;9.60;78.30;;;;;;4992852;28;20199;-91
2022/03/07 12:19:11;;;;;;;14.15;12.27;;;9.60;77.50;;;;;;5073045;28;20179;-91
2022/03/07 12:21:42;;;;;;;14.90;11.85;;;9.60;77.90;;;;;;5000499;28;20184;-91
2022/03/07 12:24:11;;;;;;;14.75;11.75;;;9.50;77.90;;;;;;4990083;28;20221;-92
2022/03/07 12:26:53;;;;;;;26.73;16.90;;;9.50;77.80;;;;;;5077071;28;20187;-92
2022/03/07 12:29:21;;;;;;;14.85;12.00;;;9.50;78.00;;;;;;4996818;28;20206;-92
2022/03/07 12:31:58;;;;;;;16.13;12.68;;;9.40;77.10;;;;;;5081133;28;20684;-92
2022/03/07 12:34:32;;;;;;;17.65;12.60;;;9.30;78.00;;;;;;5069803;28;20203;-91
2022/03/07 12:36:59;;;;;;;17.25;12.73;;;9.20;78.50;;;;;;5084902;28;20744;-91
2022/03/07 12:39:27;;;;;;;18.92;14.50;;;9.10;78.80;;;;;;5076523;28;20199;-91